Time;durP1;ratioP1;P1;durP2;ratioP2;P2;SDS_P1;SDS_P2;PMS_P1;PMS_P2;Temp;Humidity;BMP_temperature;BMP_pressure;BME280_temperature;BME280_humidity;BME280_pressure;Samples;Min_cycle;Max_cycle;Signal;HPM_P1;HPM_P2
2021/04/03 00:02:11;;;;;;;8.38;4.63;;;;;;;;;;5013743;28;20018;-66
2021/04/03 00:04:36;;;;;;;8.15;4.05;;;;;;;;;;5013177;28;20025;-66
2021/04/03 00:07:02;;;;;;;11.48;4.30;;;;;;;;;;5015029;28;20387;-66
2021/04/03 00:09:28;;;;;;;9.02;4.60;;;;;;;;;;5014751;28;20076;-66
2021/04/03 00:11:53;;;;;;;11.63;4.63;;;;;;;;;;5014961;28;20018;-66
2021/04/03 00:14:18;;;;;;;10.85;4.65;;;;;;;;;;5013555;28;20014;-66
2021/04/03 00:16:44;;;;;;;10.85;5.10;;;;;;;;;;5014720;28;20025;-66
2021/04/03 00:19:09;;;;;;;7.70;4.15;;;;;;;;;;5013569;28;20491;-66
2021/04/03 00:21:34;;;;;;;14.57;5.25;;;;;;;;;;4997261;28;20101;-65
2021/04/03 00:24:00;;;;;;;12.10;5.47;;;;;;;;;;5014509;28;20026;-66
2021/04/03 00:26:25;;;;;;;18.48;6.00;;;;;;;;;;5013331;28;20025;-65
2021/04/03 00:28:50;;;;;;;10.45;4.90;;;;;;;;;;5026825;28;20117;-66
2021/04/03 00:31:18;;;;;;;15.93;6.07;;;;;;;;;;5034170;28;20025;-65
2021/04/03 00:33:43;;;;;;;12.45;5.35;;;;;;;;;;5034285;28;20021;-65
2021/04/03 00:36:09;;;;;;;12.95;5.07;;;;;;;;;;5033519;28;20396;-66
2021/04/03 00:38:34;;;;;;;15.88;5.88;;;;;;;;;;5016318;28;20021;-65
2021/04/03 00:41:00;;;;;;;9.27;4.93;;;;;;;;;;5034046;28;20024;-65
2021/04/03 00:43:25;;;;;;;9.70;4.80;;;;;;;;;;5016405;28;20364;-66
2021/04/03 00:45:51;;;;;;;14.07;5.57;;;;;;;;;;5016495;28;20496;-65
2021/04/03 00:48:17;;;;;;;10.10;5.05;;;;;;;;;;5016144;28;20028;-66
2021/04/03 00:50:44;;;;;;;11.55;5.07;;;;;;;;;;5033824;28;20052;-66
2021/04/03 00:53:11;;;;;;;13.52;4.50;;;;;;;;;;5016180;28;20489;-66
2021/04/03 00:55:37;;;;;;;9.30;5.35;;;;;;;;;;5016265;28;20033;-66
2021/04/03 00:58:02;;;;;;;10.70;4.45;;;;;;;;;;5033791;28;20388;-66
2021/04/03 01:00:27;;;;;;;7.68;3.92;;;;;;;;;;5033831;28;20431;-65
2021/04/03 01:02:53;;;;;;;7.95;4.15;;;;;;;;;;5015915;28;20060;-66
2021/04/03 01:05:20;;;;;;;6.68;4.18;;;;;;;;;;5015364;28;20533;-66
2021/04/03 01:07:46;;;;;;;7.38;4.32;;;;;;;;;;5033791;28;20032;-65
2021/04/03 01:10:14;;;;;;;10.88;4.13;;;;;;;;;;5015623;28;20022;-66
2021/04/03 01:12:49;;;;;;;8.88;4.57;;;;;;;;;;5033461;28;20032;-65
2021/04/03 01:15:24;;;;;;;10.00;4.70;;;;;;;;;;5033459;28;20017;-65
2021/04/03 01:17:56;;;;;;;8.52;4.32;;;;;;;;;;5033569;28;20378;-65
2021/04/03 01:20:31;;;;;;;7.05;4.22;;;;;;;;;;5033301;28;20028;-66
2021/04/03 01:22:57;;;;;;;7.68;4.25;;;;;;;;;;5033403;28;20022;-66
2021/04/03 01:25:32;;;;;;;9.38;4.28;;;;;;;;;;5015683;28;20112;-66
2021/04/03 01:27:59;;;;;;;9.23;4.18;;;;;;;;;;5033425;28;20072;-65
2021/04/03 01:30:25;;;;;;;10.10;4.88;;;;;;;;;;5033478;28;20021;-66
2021/04/03 01:32:57;;;;;;;9.43;4.38;;;;;;;;;;5033263;28;20535;-66
2021/04/03 01:35:25;;;;;;;10.07;4.93;;;;;;;;;;5032589;28;20656;-65
2021/04/03 01:37:54;;;;;;;12.77;5.18;;;;;;;;;;5036397;28;20017;-66
2021/04/03 01:40:21;;;;;;;13.10;5.60;;;;;;;;;;5020340;28;20111;-65
2021/04/03 01:42:50;;;;;;;7.18;4.45;;;;;;;;;;5033222;28;20026;-65
2021/04/03 01:45:18;;;;;;;10.95;5.38;;;;;;;;;;4999091;28;20079;-65
2021/04/03 01:47:44;;;;;;;10.38;5.32;;;;;;;;;;5033031;28;20067;-65
2021/04/03 01:50:10;;;;;;;8.98;4.82;;;;;;;;;;5032949;28;20010;-65
2021/04/03 01:52:36;;;;;;;11.77;5.13;;;;;;;;;;5032972;28;20034;-65
2021/04/03 01:55:05;;;;;;;11.77;5.00;;;;;;;;;;5032886;28;20014;-65
2021/04/03 01:57:31;;;;;;;15.50;5.43;;;;;;;;;;5033145;28;20028;-65
2021/04/03 01:59:57;;;;;;;11.75;5.03;;;;;;;;;;5015254;28;20022;-65
2021/04/03 02:02:23;;;;;;;10.15;5.13;;;;;;;;;;5032788;28;20019;-66
2021/04/03 02:04:49;;;;;;;8.45;4.78;;;;;;;;;;5032200;28;20021;-65
2021/04/03 02:07:16;;;;;;;9.98;5.28;;;;;;;;;;5032474;28;20018;-65
2021/04/03 02:09:42;;;;;;;11.32;5.38;;;;;;;;;;5032581;28;20029;-65
2021/04/03 02:12:08;;;;;;;11.73;5.43;;;;;;;;;;5032511;28;20049;-65
2021/04/03 02:14:36;;;;;;;11.23;5.50;;;;;;;;;;5032121;28;20025;-65
2021/04/03 02:17:01;;;;;;;8.82;5.00;;;;;;;;;;5032320;28;20478;-65
2021/04/03 02:19:27;;;;;;;13.63;5.90;;;;;;;;;;5032623;28;20033;-65
2021/04/03 02:21:53;;;;;;;14.63;7.47;;;;;;;;;;5014916;28;20022;-65
2021/04/03 02:24:19;;;;;;;15.23;6.38;;;;;;;;;;5032462;28;20014;-65
2021/04/03 02:26:44;;;;;;;11.15;6.60;;;;;;;;;;5031866;28;20398;-65
2021/04/03 02:29:10;;;;;;;14.20;5.93;;;;;;;;;;5014508;28;20048;-65
2021/04/03 02:31:35;;;;;;;13.85;6.45;;;;;;;;;;5032358;28;20021;-65
2021/04/03 02:34:01;;;;;;;14.43;6.82;;;;;;;;;;5032023;28;20474;-66
2021/04/03 02:36:26;;;;;;;13.00;5.93;;;;;;;;;;5032272;28;20037;-65
2021/04/03 02:38:52;;;;;;;12.93;6.25;;;;;;;;;;5014440;28;20107;-65
2021/04/03 02:41:24;;;;;;;13.23;6.05;;;;;;;;;;5032220;28;20026;-65
2021/04/03 02:43:54;;;;;;;17.90;7.38;;;;;;;;;;5014662;28;20013;-65
2021/04/03 02:46:24;;;;;;;13.20;5.60;;;;;;;;;;5014214;28;20612;-65
2021/04/03 02:48:53;;;;;;;11.55;6.80;;;;;;;;;;5014266;28;20049;-65
2021/04/03 02:51:21;;;;;;;13.05;6.70;;;;;;;;;;5032270;28;20493;-65
2021/04/03 02:53:47;;;;;;;13.03;6.77;;;;;;;;;;5014738;28;20473;-65
2021/04/03 02:56:13;;;;;;;14.02;6.85;;;;;;;;;;5014594;28;20053;-65
2021/04/03 02:58:38;;;;;;;12.57;7.22;;;;;;;;;;5014474;28;20024;-66
2021/04/03 03:01:07;;;;;;;10.48;6.60;;;;;;;;;;5031920;28;20021;-66
2021/04/03 03:03:33;;;;;;;11.85;6.88;;;;;;;;;;5032191;28;20013;-65
2021/04/03 03:05:59;;;;;;;11.10;6.43;;;;;;;;;;5031429;28;20382;-65
2021/04/03 03:08:25;;;;;;;10.48;6.82;;;;;;;;;;5014223;28;20112;-65
2021/04/03 03:10:51;;;;;;;15.48;7.20;;;;;;;;;;5031888;28;20574;-65
2021/04/03 03:13:18;;;;;;;14.90;7.70;;;;;;;;;;5031792;28;20025;-65
2021/04/03 03:15:44;;;;;;;12.52;6.90;;;;;;;;;;5014398;28;20032;-65
2021/04/03 03:18:10;;;;;;;13.00;6.78;;;;;;;;;;4998168;28;20017;-65
2021/04/03 03:20:35;;;;;;;11.88;6.88;;;;;;;;;;5031947;28;20148;-65
2021/04/03 03:23:00;;;;;;;13.63;7.68;;;;;;;;;;5031969;28;20052;-66
2021/04/03 03:25:26;;;;;;;14.93;7.28;;;;;;;;;;4997843;28;20014;-65
2021/04/03 03:27:52;;;;;;;15.50;7.47;;;;;;;;;;5012425;28;20096;-65
2021/04/03 03:30:20;;;;;;;14.35;7.22;;;;;;;;;;5014280;28;20030;-65
2021/04/03 03:32:45;;;;;;;15.80;7.68;;;;;;;;;;5015564;28;20033;-65
2021/04/03 03:35:12;;;;;;;13.40;7.60;;;;;;;;;;5013811;28;20022;-65
2021/04/03 03:37:37;;;;;;;14.40;7.70;;;;;;;;;;4998042;28;20024;-65
2021/04/03 03:40:03;;;;;;;14.10;7.20;;;;;;;;;;5015770;28;20383;-65
2021/04/03 03:42:29;;;;;;;13.32;7.22;;;;;;;;;;5014234;28;20471;-66
2021/04/03 03:44:55;;;;;;;14.93;7.88;;;;;;;;;;4997955;28;20018;-66
2021/04/03 03:47:20;;;;;;;18.33;7.57;;;;;;;;;;5018524;28;20045;-65
2021/04/03 03:49:46;;;;;;;13.40;6.78;;;;;;;;;;5014361;28;20401;-65
2021/04/03 03:52:11;;;;;;;15.35;8.45;;;;;;;;;;5013984;28;20024;-66
2021/04/03 03:54:37;;;;;;;12.18;7.63;;;;;;;;;;5013868;28;20049;-66
2021/04/03 03:57:03;;;;;;;15.40;7.28;;;;;;;;;;5015253;28;20150;-66
2021/04/03 03:59:28;;;;;;;15.80;8.13;;;;;;;;;;5013862;28;20029;-65
2021/04/03 04:01:53;;;;;;;14.13;8.18;;;;;;;;;;5013969;28;20423;-65
2021/04/03 04:04:19;;;;;;;17.38;7.57;;;;;;;;;;5014515;28;20014;-65
2021/04/03 04:06:44;;;;;;;15.98;8.77;;;;;;;;;;5015027;28;20017;-65
2021/04/03 04:09:09;;;;;;;14.48;8.68;;;;;;;;;;4997277;28;20128;-66
2021/04/03 04:11:35;;;;;;;17.92;8.38;;;;;;;;;;5013762;28;20030;-65
2021/04/03 04:14:00;;;;;;;14.07;7.72;;;;;;;;;;5014771;28;20494;-65
2021/04/03 04:16:26;;;;;;;16.17;8.88;;;;;;;;;;5013776;28;20097;-66
2021/04/03 04:18:51;;;;;;;15.75;8.77;;;;;;;;;;5013612;28;20558;-65
2021/04/03 04:21:17;;;;;;;13.00;8.00;;;;;;;;;;5013627;28;20072;-66
2021/04/03 04:23:43;;;;;;;16.63;8.82;;;;;;;;;;5013799;28;20018;-66
2021/04/03 04:26:09;;;;;;;17.00;8.95;;;;;;;;;;5013570;28;20022;-65
2021/04/03 04:28:34;;;;;;;15.82;8.90;;;;;;;;;;5013085;28;20049;-65
2021/04/03 04:31:00;;;;;;;17.27;9.55;;;;;;;;;;5013495;28;20097;-66
2021/04/03 04:33:25;;;;;;;15.35;8.32;;;;;;;;;;5013177;28;20113;-65
2021/04/03 04:35:51;;;;;;;15.43;9.55;;;;;;;;;;5014178;28;20022;-66
2021/04/03 04:38:16;;;;;;;16.58;9.50;;;;;;;;;;5014267;28;20037;-66
2021/04/03 04:40:41;;;;;;;16.58;9.40;;;;;;;;;;5013221;28;20028;-66
2021/04/03 04:43:07;;;;;;;14.40;8.73;;;;;;;;;;5013456;28;20022;-65
2021/04/03 04:45:32;;;;;;;19.15;10.43;;;;;;;;;;4996857;28;20549;-65
2021/04/03 04:47:58;;;;;;;17.10;9.23;;;;;;;;;;5014296;28;20442;-66
2021/04/03 04:50:23;;;;;;;17.27;9.98;;;;;;;;;;5013233;28;20026;-65
2021/04/03 04:52:48;;;;;;;15.43;9.23;;;;;;;;;;5014327;28;20105;-66
2021/04/03 04:55:14;;;;;;;17.42;9.70;;;;;;;;;;5014232;28;20022;-65
2021/04/03 04:57:39;;;;;;;21.70;9.60;;;;;;;;;;5013084;28;20444;-66
2021/04/03 05:00:06;;;;;;;18.58;10.70;;;;;;;;;;4996446;28;20014;-65
2021/04/03 05:02:31;;;;;;;18.00;10.60;;;;;;;;;;5013859;28;20018;-65
2021/04/03 05:04:56;;;;;;;19.15;10.35;;;;;;;;;;5012570;28;20076;-66
2021/04/03 05:07:22;;;;;;;21.13;10.68;;;;;;;;;;5012867;28;20117;-65
2021/04/03 05:09:47;;;;;;;22.27;10.40;;;;;;;;;;4996437;28;20033;-65
2021/04/03 05:12:12;;;;;;;18.30;10.63;;;;;;;;;;5014168;28;20068;-66
2021/04/03 05:14:38;;;;;;;19.27;10.80;;;;;;;;;;5013604;28;20029;-65
2021/04/03 05:17:03;;;;;;;23.10;10.70;;;;;;;;;;5013014;28;20502;-66
2021/04/03 05:19:29;;;;;;;20.77;11.82;;;;;;;;;;5012689;28;20052;-65
2021/04/03 05:21:54;;;;;;;22.67;11.98;;;;;;;;;;5013002;28;20429;-65
2021/04/03 05:24:19;;;;;;;28.88;12.70;;;;;;;;;;4996332;28;20029;-66
2021/04/03 05:26:45;;;;;;;21.27;10.85;;;;;;;;;;5012479;28;20133;-65
2021/04/03 05:29:11;;;;;;;19.52;11.65;;;;;;;;;;5028548;28;20125;-66
2021/04/03 05:31:36;;;;;;;19.92;11.00;;;;;;;;;;4999347;28;20009;-66
2021/04/03 05:34:01;;;;;;;20.52;10.85;;;;;;;;;;5033323;28;20028;-66
2021/04/03 05:36:27;;;;;;;22.30;11.52;;;;;;;;;;5032686;28;20017;-65
2021/04/03 05:38:52;;;;;;;20.23;11.30;;;;;;;;;;5033078;28;20025;-65
2021/04/03 05:41:18;;;;;;;22.42;11.55;;;;;;;;;;5015573;28;20489;-66
2021/04/03 05:43:46;;;;;;;19.48;9.90;;;;;;;;;;5015574;28;20025;-66
2021/04/03 05:46:11;;;;;;;22.05;10.38;;;;;;;;;;5015386;28;20040;-66
2021/04/03 05:48:38;;;;;;;30.85;12.32;;;;;;;;;;5033229;28;20101;-66
2021/04/03 05:51:03;;;;;;;23.60;12.63;;;;;;;;;;5014817;28;20437;-66
2021/04/03 05:53:29;;;;;;;20.33;11.25;;;;;;;;;;5016775;28;20017;-65
2021/04/03 05:55:55;;;;;;;20.88;12.02;;;;;;;;;;5034596;28;20532;-66
2021/04/03 05:58:21;;;;;;;20.27;11.02;;;;;;;;;;5033308;28;20052;-65
2021/04/03 06:00:46;;;;;;;18.63;10.57;;;;;;;;;;5015102;28;20056;-65
2021/04/03 06:03:14;;;;;;;19.60;10.98;;;;;;;;;;5015238;28;20052;-66
2021/04/03 06:05:40;;;;;;;21.17;11.57;;;;;;;;;;5032499;28;20028;-66
2021/04/03 06:08:05;;;;;;;21.25;10.70;;;;;;;;;;5032582;28;20092;-66
2021/04/03 06:10:31;;;;;;;21.85;11.10;;;;;;;;;;5015152;28;20046;-66
2021/04/03 06:12:57;;;;;;;21.85;12.05;;;;;;;;;;5032970;28;20028;-66
2021/04/03 06:15:32;;;;;;;23.20;12.25;;;;;;;;;;5032625;28;20029;-66
2021/04/03 06:17:57;;;;;;;20.85;12.02;;;;;;;;;;5015083;28;20021;-66
2021/04/03 06:20:34;;;;;;;23.50;12.93;;;;;;;;;;5032628;28;20467;-66
2021/04/03 06:23:00;;;;;;;20.27;11.55;;;;;;;;;;5032656;28;20071;-66
2021/04/03 06:25:26;;;;;;;25.00;12.35;;;;;;;;;;4998700;28;20018;-66
2021/04/03 06:47:35;;;;;;;23.75;13.27;;;;;;;;;;4337506;26;20053;-66
2021/04/03 06:50:00;;;;;;;22.20;13.07;;;;;;;;;;5052102;28;20025;-66
2021/04/03 06:52:25;;;;;;;21.75;13.25;;;;;;;;;;5017835;28;20017;-66
2021/04/03 06:54:51;;;;;;;28.65;13.63;;;;;;;;;;5052027;28;20028;-67
2021/04/03 06:57:16;;;;;;;25.35;14.93;;;;;;;;;;5034146;28;20032;-67
2021/04/03 06:59:42;;;;;;;20.63;12.93;;;;;;;;;;5017964;28;20491;-67
2021/04/03 07:02:08;;;;;;;22.33;13.23;;;;;;;;;;5054298;28;20013;-67
2021/04/03 07:04:43;;;;;;;25.63;13.68;;;;;;;;;;5037359;28;20021;-67
2021/04/03 07:07:09;;;;;;;23.23;13.43;;;;;;;;;;5055819;28;20031;-67
2021/04/03 07:09:35;;;;;;;25.63;14.63;;;;;;;;;;5037400;28;20556;-67
2021/04/03 07:12:00;;;;;;;23.85;12.45;;;;;;;;;;5055801;28;20108;-67
2021/04/03 07:14:26;;;;;;;21.63;14.20;;;;;;;;;;5055808;28;20021;-67
2021/04/03 07:16:51;;;;;;;21.70;14.10;;;;;;;;;;5037634;28;20481;-67
2021/04/03 07:19:18;;;;;;;21.38;14.00;;;;;;;;;;5055675;28;20021;-67
2021/04/03 07:21:43;;;;;;;23.45;13.68;;;;;;;;;;5055651;28;20042;-67
2021/04/03 07:24:11;;;;;;;24.30;12.52;;;;;;;;;;5055593;28;20009;-67
2021/04/03 07:26:38;;;;;;;23.38;13.90;;;;;;;;;;5037286;28;20318;-67
2021/04/03 07:29:03;;;;;;;23.48;13.82;;;;;;;;;;5037590;28;20025;-67
2021/04/03 07:31:38;;;;;;;23.50;13.90;;;;;;;;;;5055687;28;20351;-67
2021/04/03 07:34:03;;;;;;;29.63;13.98;;;;;;;;;;5055485;28;20013;-67
2021/04/03 07:36:30;;;;;;;21.08;13.95;;;;;;;;;;5054755;28;20023;-67
2021/04/03 07:38:56;;;;;;;19.73;13.00;;;;;;;;;;5055302;28;20100;-67
2021/04/03 07:41:21;;;;;;;21.33;13.77;;;;;;;;;;5037253;28;20455;-67
2021/04/03 07:43:49;;;;;;;24.45;14.40;;;;;;;;;;5055333;28;20025;-67
2021/04/03 07:46:34;;;;;;;23.08;14.70;;;;;;;;;;5020862;28;20489;-67
2021/04/03 07:49:00;;;;;;;21.90;13.10;;;;;;;;;;5040201;28;20033;-68
2021/04/03 07:51:33;;;;;;;22.80;14.13;;;;;;;;;;5037136;28;20032;-67
2021/04/03 07:54:00;;;;;;;23.02;13.55;;;;;;;;;;5037263;28;20048;-67
2021/04/03 07:56:26;;;;;;;20.88;13.00;;;;;;;;;;5037123;28;20025;-67
2021/04/03 07:58:51;;;;;;;23.73;14.10;;;;;;;;;;5036827;28;20086;-67
2021/04/03 08:01:18;;;;;;;21.20;14.00;;;;;;;;;;5038402;28;20489;-67
2021/04/03 08:03:53;;;;;;;24.38;14.20;;;;;;;;;;5037673;28;20017;-67
2021/04/03 08:06:18;;;;;;;24.52;13.02;;;;;;;;;;5036328;28;20013;-67
2021/04/03 08:08:44;;;;;;;20.08;13.55;;;;;;;;;;5036801;28;20029;-67
2021/04/03 08:11:11;;;;;;;19.45;12.65;;;;;;;;;;5020439;28;20031;-67
2021/04/03 08:13:38;;;;;;;21.00;13.32;;;;;;;;;;5053865;28;20029;-67
2021/04/03 08:16:05;;;;;;;21.08;13.27;;;;;;;;;;5054755;28;20107;-67
2021/04/03 08:18:31;;;;;;;18.92;12.95;;;;;;;;;;5036707;28;20013;-67
2021/04/03 08:20:57;;;;;;;19.50;13.10;;;;;;;;;;5036874;28;20020;-67
2021/04/03 08:23:32;;;;;;;15.63;11.35;;;;;;;;;;5054633;28;20078;-67
2021/04/03 08:25:57;;;;;;;16.20;11.63;;;;;;;;;;5054520;28;20013;-68
2021/04/03 08:28:22;;;;;;;21.27;11.75;;;;;;;;;;5036498;28;20500;-68
2021/04/03 08:30:48;;;;;;;17.50;11.70;;;;;;;;;;5054280;28;20533;-67
2021/04/03 08:33:13;;;;;;;14.15;10.27;;;;;;;;;;5054203;28;20059;-67
2021/04/03 08:35:41;;;;;;;12.98;9.95;;;;;;;;;;5035810;28;20024;-68
2021/04/03 08:38:09;;;;;;;15.05;9.63;;;;;;;;;;5036321;28;20025;-68
2021/04/03 08:40:35;;;;;;;15.43;10.38;;;;;;;;;;5053892;28;20482;-67
2021/04/03 08:43:00;;;;;;;12.88;8.63;;;;;;;;;;5036212;28;20055;-68
2021/04/03 08:45:25;;;;;;;14.63;9.20;;;;;;;;;;5054139;28;20048;-68
2021/04/03 08:47:51;;;;;;;12.40;8.98;;;;;;;;;;5035710;28;20045;-68
2021/04/03 08:50:16;;;;;;;12.27;8.98;;;;;;;;;;5036112;28;20032;-68
2021/04/03 08:52:42;;;;;;;12.23;9.70;;;;;;;;;;5036011;28;20021;-67
2021/04/03 08:55:07;;;;;;;13.73;10.65;;;;;;;;;;5053874;28;20020;-67
2021/04/03 08:57:33;;;;;;;15.05;9.70;;;;;;;;;;5036130;28;20024;-67
2021/04/03 08:59:59;;;;;;;17.40;9.60;;;;;;;;;;5053875;28;20092;-68
2021/04/03 09:02:24;;;;;;;13.82;10.35;;;;;;;;;;5035804;28;20048;-67
2021/04/03 09:04:50;;;;;;;13.98;10.07;;;;;;;;;;5034825;28;20049;-68
2021/04/03 09:07:25;;;;;;;14.70;9.75;;;;;;;;;;5035869;28;20048;-68
2021/04/03 09:09:58;;;;;;;13.38;9.43;;;;;;;;;;5053607;28;20032;-68
2021/04/03 09:12:28;;;;;;;12.40;9.13;;;;;;;;;;5053569;28;20074;-68
2021/04/03 09:14:54;;;;;;;12.52;8.45;;;;;;;;;;5053378;28;20481;-68
2021/04/03 09:17:21;;;;;;;11.18;8.20;;;;;;;;;;5035701;28;20099;-67
2021/04/03 09:19:47;;;;;;;11.82;8.73;;;;;;;;;;5035804;28;20013;-68
2021/04/03 09:22:14;;;;;;;12.40;7.95;;;;;;;;;;5053318;28;20021;-68
2021/04/03 09:24:41;;;;;;;9.15;6.68;;;;;;;;;;5052292;28;20088;-68
2021/04/03 09:27:08;;;;;;;10.13;7.18;;;;;;;;;;5035363;28;20028;-67
2021/04/03 09:29:33;;;;;;;9.25;7.32;;;;;;;;;;5053208;28;20485;-68
2021/04/03 09:32:03;;;;;;;12.80;6.82;;;;;;;;;;5018848;28;20024;-68
2021/04/03 09:34:30;;;;;;;12.18;8.48;;;;;;;;;;5052729;28;20111;-68
2021/04/03 09:36:56;;;;;;;10.40;8.27;;;;;;;;;;5035392;28;20024;-68
2021/04/03 09:39:21;;;;;;;10.40;8.18;;;;;;;;;;5034963;28;20017;-68
2021/04/03 09:41:49;;;;;;;15.05;8.55;;;;;;;;;;5035297;28;20111;-68
2021/04/03 09:44:15;;;;;;;13.35;8.90;;;;;;;;;;5034964;28;20025;-68
2021/04/03 09:46:40;;;;;;;11.85;8.02;;;;;;;;;;5018145;28;20045;-68
2021/04/03 09:49:10;;;;;;;14.10;8.50;;;;;;;;;;5034968;28;20029;-68
2021/04/03 09:51:35;;;;;;;12.43;9.20;;;;;;;;;;5052970;28;20408;-68
2021/04/03 09:54:01;;;;;;;11.18;7.78;;;;;;;;;;5052957;28;20036;-68
2021/04/03 09:56:26;;;;;;;12.27;7.95;;;;;;;;;;5052758;28;20116;-68
2021/04/03 09:58:53;;;;;;;13.95;8.73;;;;;;;;;;5034586;28;20075;-68
2021/04/03 10:01:19;;;;;;;10.60;7.65;;;;;;;;;;5052678;28;20025;-67
2021/04/03 10:03:45;;;;;;;10.57;7.70;;;;;;;;;;5035025;28;20021;-68
2021/04/03 10:06:10;;;;;;;13.02;7.65;;;;;;;;;;5052422;28;20032;-68
2021/04/03 10:08:35;;;;;;;10.18;8.30;;;;;;;;;;5052366;28;20024;-68
2021/04/03 10:11:01;;;;;;;12.98;8.07;;;;;;;;;;5052487;28;20056;-68
2021/04/03 10:13:26;;;;;;;9.35;7.50;;;;;;;;;;5052220;28;20039;-68
2021/04/03 10:15:52;;;;;;;10.10;7.68;;;;;;;;;;5034641;28;20017;-68
2021/04/03 10:18:17;;;;;;;11.80;7.95;;;;;;;;;;5052523;28;20052;-68
2021/04/03 10:20:43;;;;;;;13.05;8.82;;;;;;;;;;5052227;28;20537;-68
2021/04/03 10:23:09;;;;;;;15.07;8.77;;;;;;;;;;5034854;28;20017;-68
2021/04/03 10:25:34;;;;;;;11.63;8.15;;;;;;;;;;5034692;28;20143;-67
2021/04/03 10:27:59;;;;;;;10.98;8.10;;;;;;;;;;5052259;28;20366;-67
2021/04/03 10:30:25;;;;;;;12.68;9.00;;;;;;;;;;5052082;28;20090;-68
2021/04/03 10:32:50;;;;;;;12.65;9.13;;;;;;;;;;5034620;28;20039;-67
2021/04/03 10:35:16;;;;;;;12.73;9.00;;;;;;;;;;5033833;28;20017;-68
2021/04/03 10:37:41;;;;;;;11.82;8.52;;;;;;;;;;5037950;28;20017;-68
2021/04/03 10:40:07;;;;;;;11.63;8.57;;;;;;;;;;5038667;28;20016;-67
2021/04/03 10:42:32;;;;;;;13.82;9.02;;;;;;;;;;5056309;28;20049;-67
2021/04/03 10:44:58;;;;;;;11.50;8.23;;;;;;;;;;5038478;28;20024;-67
2021/04/03 10:47:23;;;;;;;12.20;9.02;;;;;;;;;;5056073;28;20040;-68
2021/04/03 10:49:48;;;;;;;11.75;8.15;;;;;;;;;;5038535;28;20104;-68
2021/04/03 10:52:14;;;;;;;13.75;9.10;;;;;;;;;;5056117;28;20082;-68
2021/04/03 10:54:39;;;;;;;12.43;8.75;;;;;;;;;;5038087;28;20053;-68
2021/04/03 10:57:05;;;;;;;11.25;8.30;;;;;;;;;;5056083;28;20074;-67
2021/04/03 10:59:30;;;;;;;14.70;9.57;;;;;;;;;;5038338;28;20096;-67
2021/04/03 11:01:55;;;;;;;11.25;8.90;;;;;;;;;;5056291;28;20013;-67
2021/04/03 11:04:21;;;;;;;14.45;10.30;;;;;;;;;;5037576;28;20079;-67
2021/04/03 11:06:46;;;;;;;11.63;8.88;;;;;;;;;;5038072;28;20482;-67
2021/04/03 11:09:12;;;;;;;17.83;11.07;;;;;;;;;;5055686;28;20389;-68
2021/04/03 11:11:37;;;;;;;46.13;13.98;;;;;;;;;;5056068;28;20024;-68
2021/04/03 11:14:02;;;;;;;37.55;13.38;;;;;;;;;;5055888;28;20093;-67
2021/04/03 11:16:29;;;;;;;19.85;12.07;;;;;;;;;;5055677;28;20021;-68
2021/04/03 11:18:55;;;;;;;16.23;10.45;;;;;;;;;;5038167;28;20051;-67
2021/04/03 11:21:20;;;;;;;16.58;10.80;;;;;;;;;;5037975;28;20408;-68
2021/04/03 11:23:46;;;;;;;15.30;9.75;;;;;;;;;;5055849;28;20013;-67
2021/04/03 11:26:11;;;;;;;13.32;8.82;;;;;;;;;;5055592;28;20028;-68
2021/04/03 11:28:36;;;;;;;13.80;8.35;;;;;;;;;;5055305;28;20024;-67
2021/04/03 11:31:02;;;;;;;13.93;8.15;;;;;;;;;;5037433;28;20382;-67
2021/04/03 11:33:27;;;;;;;17.17;8.73;;;;;;;;;;5037844;28;20027;-67
2021/04/03 11:35:53;;;;;;;13.00;8.40;;;;;;;;;;5055080;28;20025;-67
2021/04/03 11:38:20;;;;;;;11.90;7.60;;;;;;;;;;5037485;28;20469;-67
2021/04/03 11:40:45;;;;;;;12.45;7.40;;;;;;;;;;5055202;28;20021;-67
2021/04/03 11:43:10;;;;;;;16.00;7.93;;;;;;;;;;5055385;28;20385;-67
2021/04/03 11:45:36;;;;;;;12.10;7.07;;;;;;;;;;5055079;28;20013;-67
2021/04/03 11:48:01;;;;;;;12.48;7.90;;;;;;;;;;5053834;28;20563;-67
2021/04/03 11:50:27;;;;;;;9.75;6.78;;;;;;;;;;5037270;28;20048;-67
2021/04/03 11:52:53;;;;;;;11.85;7.15;;;;;;;;;;5055022;28;20033;-67
2021/04/03 11:55:18;;;;;;;12.35;7.03;;;;;;;;;;5037142;28;20378;-67
2021/04/03 11:57:44;;;;;;;13.20;6.72;;;;;;;;;;5020658;28;20021;-67
2021/04/03 12:00:10;;;;;;;11.75;7.85;;;;;;;;;;5020641;28;20159;-68
2021/04/03 12:02:35;;;;;;;12.48;7.55;;;;;;;;;;5054622;28;20032;-67
2021/04/03 12:05:01;;;;;;;12.82;8.15;;;;;;;;;;5036470;28;20021;-67
2021/04/03 12:07:27;;;;;;;13.63;8.68;;;;;;;;;;5036877;28;20017;-67
2021/04/03 12:09:52;;;;;;;10.80;7.47;;;;;;;;;;5037022;28;20041;-67
2021/04/03 12:12:17;;;;;;;14.88;8.40;;;;;;;;;;5055710;28;20021;-67
2021/04/03 12:14:43;;;;;;;14.02;8.75;;;;;;;;;;5036705;28;20013;-67
2021/04/03 12:17:08;;;;;;;13.20;8.90;;;;;;;;;;5036561;28;20025;-67
2021/04/03 12:19:33;;;;;;;14.30;9.00;;;;;;;;;;5054565;28;20478;-67
2021/04/03 12:21:59;;;;;;;13.20;8.52;;;;;;;;;;5036768;28;20052;-67
2021/04/03 12:24:24;;;;;;;13.05;8.55;;;;;;;;;;5036759;28;20474;-67
2021/04/03 12:26:49;;;;;;;16.25;9.27;;;;;;;;;;5036326;28;20378;-67
2021/04/03 12:29:15;;;;;;;15.15;9.18;;;;;;;;;;5054248;28;20082;-67
2021/04/03 12:31:40;;;;;;;15.60;10.07;;;;;;;;;;5036348;28;20021;-67
2021/04/03 12:34:06;;;;;;;15.13;8.20;;;;;;;;;;5054429;28;20028;-67
2021/04/03 12:36:31;;;;;;;12.50;8.25;;;;;;;;;;5035807;28;20136;-67
2021/04/03 12:38:57;;;;;;;18.90;9.52;;;;;;;;;;5054358;28;20466;-67
2021/04/03 12:41:22;;;;;;;13.02;8.65;;;;;;;;;;5036406;28;20088;-67
2021/04/03 12:43:48;;;;;;;15.05;9.15;;;;;;;;;;5036551;28;20024;-67
2021/04/03 12:46:13;;;;;;;18.33;9.05;;;;;;;;;;5035880;28;20041;-68
2021/04/03 12:48:38;;;;;;;16.00;9.13;;;;;;;;;;5053787;28;20370;-67
2021/04/03 12:51:04;;;;;;;12.05;8.30;;;;;;;;;;5036308;28;20025;-67
2021/04/03 12:53:29;;;;;;;14.52;9.38;;;;;;;;;;5019549;28;20413;-67
2021/04/03 12:55:55;;;;;;;12.15;8.43;;;;;;;;;;5054177;28;20032;-67
2021/04/03 12:58:21;;;;;;;14.98;8.75;;;;;;;;;;5036121;28;20067;-67
2021/04/03 13:00:46;;;;;;;13.57;9.13;;;;;;;;;;5035553;28;20028;-67
2021/04/03 13:03:11;;;;;;;13.85;8.40;;;;;;;;;;5053588;28;20095;-68
2021/04/03 13:05:37;;;;;;;15.80;8.70;;;;;;;;;;5053121;28;20389;-67
2021/04/03 13:08:02;;;;;;;10.90;8.07;;;;;;;;;;5035863;28;20029;-67
2021/04/03 13:10:28;;;;;;;18.08;8.80;;;;;;;;;;5053648;28;20445;-67
2021/04/03 13:12:53;;;;;;;14.02;8.23;;;;;;;;;;5035557;28;20040;-67
2021/04/03 13:15:19;;;;;;;14.07;8.27;;;;;;;;;;5035729;28;20020;-67
2021/04/03 13:17:45;;;;;;;11.98;8.07;;;;;;;;;;5035670;28;20052;-67
2021/04/03 13:20:11;;;;;;;13.48;8.25;;;;;;;;;;5035704;28;20055;-67
2021/04/03 13:22:36;;;;;;;13.30;8.48;;;;;;;;;;5053082;28;20028;-67
2021/04/03 13:25:02;;;;;;;11.93;7.90;;;;;;;;;;5018991;28;20382;-67
2021/04/03 13:27:27;;;;;;;12.73;7.85;;;;;;;;;;5035530;28;20013;-67
2021/04/03 13:29:55;;;;;;;12.43;7.95;;;;;;;;;;5053292;28;20544;-67
2021/04/03 13:32:21;;;;;;;12.20;8.25;;;;;;;;;;5053195;28;20075;-67
2021/04/03 13:34:46;;;;;;;13.15;8.60;;;;;;;;;;5034490;28;20020;-67
2021/04/03 13:37:12;;;;;;;12.77;7.95;;;;;;;;;;5035290;28;20067;-67
2021/04/03 13:39:38;;;;;;;17.33;11.18;;;;;;;;;;5052973;28;20466;-67
2021/04/03 13:42:04;;;;;;;11.93;8.32;;;;;;;;;;5053065;28;20031;-67
2021/04/03 13:44:29;;;;;;;14.35;7.95;;;;;;;;;;5018637;28;20116;-67
2021/04/03 13:46:55;;;;;;;14.02;8.55;;;;;;;;;;5052575;28;20132;-67
2021/04/03 13:49:20;;;;;;;16.63;10.18;;;;;;;;;;5052689;28;20033;-67
2021/04/03 13:51:45;;;;;;;16.05;8.93;;;;;;;;;;5052902;28;20017;-67
2021/04/03 13:54:11;;;;;;;14.35;8.50;;;;;;;;;;5034977;28;20111;-67
2021/04/03 13:56:36;;;;;;;14.40;8.80;;;;;;;;;;5034850;28;20017;-67
2021/04/03 13:59:01;;;;;;;15.57;10.30;;;;;;;;;;5052668;28;20025;-67
2021/04/03 14:01:27;;;;;;;13.02;8.65;;;;;;;;;;5052636;28;20101;-67
2021/04/03 14:03:52;;;;;;;13.85;9.25;;;;;;;;;;5052726;28;20040;-67
2021/04/03 14:06:18;;;;;;;16.58;9.50;;;;;;;;;;5017734;28;20025;-67
2021/04/03 14:08:43;;;;;;;23.10;9.93;;;;;;;;;;5034672;28;20025;-67
2021/04/03 14:11:08;;;;;;;22.95;11.68;;;;;;;;;;5034236;28;20424;-67
2021/04/03 14:13:34;;;;;;;19.35;10.23;;;;;;;;;;5052746;28;20074;-67
2021/04/03 14:16:02;;;;;;;18.70;9.95;;;;;;;;;;5052578;28;20106;-67
2021/04/03 14:18:27;;;;;;;15.32;10.25;;;;;;;;;;5036126;28;20031;-67
2021/04/03 14:20:53;;;;;;;18.70;11.35;;;;;;;;;;5052288;28;20020;-67
2021/04/03 14:23:18;;;;;;;17.27;10.98;;;;;;;;;;5034588;28;20021;-67
2021/04/03 14:25:43;;;;;;;19.10;12.30;;;;;;;;;;5052215;28;20024;-67
2021/04/03 14:28:11;;;;;;;15.20;10.32;;;;;;;;;;5034408;28;20021;-67
2021/04/03 14:30:37;;;;;;;19.10;9.95;;;;;;;;;;5034787;28;20024;-67
2021/04/03 14:33:03;;;;;;;13.05;9.15;;;;;;;;;;5052148;28;20441;-67
2021/04/03 14:35:29;;;;;;;17.25;9.00;;;;;;;;;;5033858;28;20017;-67
2021/04/03 14:37:56;;;;;;;14.65;7.18;;;;;;;;;;5034642;28;20066;-67
2021/04/03 14:40:22;;;;;;;10.60;6.07;;;;;;;;;;5052308;28;20014;-67